x

8461490 - New London, Ct (nlnc3) Weather Station

8:18pm - Mon 28th Jul 2014 All times are EDT. -4 hours from GMT.

  • Wind
    6mph, 9mph gusts
  • Sea Temp 71°f
  • 空気 Temp 77°f
  • Sea Pressure 999.5mb
  • 8461490 - New London, Ct
  • 8461490 - New London, Ct

More Historic Weather Station data

Upgrade to MSW Pro to gain access to the past 30 days of data for over 8000 Wavebouys and Weather Stations around the globe.

Join Pro

Comparision Forecast

View Surf forecast
   
Mon 07/28 8:18pm 6 9 mph 999.5mb 71f 77f
8:12pm 7 9 mph 999.5mb 71f 77f
8:06pm 5 8 mph 999.4mb 70f 77f
8:00pm 5 9 mph 999.4mb 70f 77f
7:54pm 6 9 mph 999.4mb 69f 77f
7:48pm 8 11 mph 999.3mb 70f 76f
7:42pm 9 14 mph 999.3mb 69f 77f
7:36pm 7 11 mph 999.3mb 69f 76f
7:30pm 8 11 mph 999.3mb 69f 76f
7:24pm 9 14 mph 999.2mb 69f 76f
7:18pm 9 15 mph 999.2mb 69f 76f
7:12pm 11 15 mph 999.2mb 69f 76f
7:06pm 8 13 mph 999.2mb 69f 76f
7:00pm 8 17 mph 999.1mb 71f 77f
6:54pm 10 18 mph 999.2mb 71f 77f
6:48pm 9 16 mph 999.1mb 71f 78f
6:42pm 9 17 mph 999mb 71f 78f
6:36pm 10 16 mph 999mb 71f 78f
6:30pm 10 18 mph 999mb 71f 77f
6:24pm 9 14 mph 999mb 71f 78f
6:18pm 9 15 mph 998.9mb 71f 78f
6:12pm 7 11 mph 998.9mb 71f 78f
6:06pm 9 16 mph 998.8mb 72f 78f
6:00pm 10 14 mph 998.8mb 71f 78f
5:54pm 8 15 mph 998.6mb 71f 79f
5:48pm 8 14 mph 998.5mb 71f 80f
5:42pm 8 14 mph 998.4mb 71f 80f
5:36pm 7 15 mph 998.4mb 71f 80f
5:30pm 11 15 mph 998.4mb 71f 79f
5:24pm 8 16 mph 998.4mb 71f 79f
5:18pm 10 14 mph 998.4mb 71f 79f
5:12pm 9 14 mph 998.4mb 71f 79f
5:06pm 9 14 mph 998.4mb 71f 79f
5:00pm 11 16 mph 998.3mb 71f 79f
4:54pm 11 16 mph 998.3mb 72f 79f
4:48pm 10 17 mph 998.2mb 71f 79f
4:42pm 9 17 mph 998.2mb 71f 80f
4:36pm 9 20 mph 998.1mb 70f 80f
4:30pm 13 21 mph 998.2mb 70f 80f
4:24pm 11 17 mph 998.1mb 71f 80f
4:18pm 10 14 mph 998.2mb 69f 80f
4:12pm 13 16 mph 998.1mb 69f 80f
4:06pm 9 13 mph 998.1mb 69f 80f
4:00pm 13 17 mph 998.1mb 69f 80f
3:54pm 9 14 mph 998.1mb 69f 80f
3:48pm 11 17 mph 998mb 70f 79f
3:42pm 13 18 mph 998.1mb 69f 80f
3:36pm 9 15 mph 998mb 70f 80f
3:30pm 10 17 mph 998mb 69f 79f
3:24pm 11 16 mph 998.1mb 69f 79f
3:18pm 10 14 mph 998.1mb 69f 78f
3:12pm 10 13 mph 998.1mb 69f 76f
3:06pm 11 14 mph 998.1mb 69f 76f
3:00pm 11 14 mph 998.2mb 69f 76f
2:54pm 10 13 mph 998.2mb 69f 76f
2:48pm 10 11 mph 998.2mb 70f 76f
2:42pm 9 11 mph 998.2mb 70f 76f
2:36pm 9 11 mph 998.2mb 70f 76f
2:30pm 10 14 mph 998.2mb 70f 76f
2:24pm 11 15 mph 998.3mb 70f 75f
2:18pm 10 11 mph 998.3mb 71f 76f
2:12pm 10 14 mph 998.3mb 70f 76f
2:06pm 9 11 mph 998.4mb 71f 75f
2:00pm 9 13 mph 998.4mb 71f 75f
1:54pm 11 13 mph 998.5mb 71f 74f
1:48pm 11 13 mph 998.6mb 71f 74f
1:42pm 11 14 mph 998.6mb 71f 74f
1:36pm 11 14 mph 998.6mb 71f 73f
1:30pm 13 15 mph 998.7mb 71f 74f
1:24pm 11 14 mph 998.8mb 70f 74f
1:18pm 11 13 mph 998.9mb 70f 73f
1:12pm 9 11 mph 998.9mb 70f 73f
1:06pm 10 14 mph 999mb 71f 73f
1:00pm 10 13 mph 999.1mb 70f 73f
12:54pm 8 10 mph 999.1mb 70f 73f
12:48pm 8 10 mph 999.2mb 70f 73f
12:42pm 7 9 mph 999.3mb 69f 73f
12:36pm 7 9 mph 999.5mb 69f 73f
12:30pm 9 13 mph 999.6mb 69f 72f
12:24pm 11 14 mph 999.6mb 69f 73f
12:18pm 11 13 mph 999.7mb 69f 73f
12:12pm 10 13 mph 999.6mb 69f 74f
12:06pm 10 11 mph 999.7mb 69f 74f
12:00pm 8 11 mph 999.7mb 69f 74f
11:54am 8 13 mph 999.7mb 69f 74f
11:48am 6 7 mph 999.8mb 71f 75f
11:42am 6 8 mph 999.9mb 70f 75f
11:36am 7 8 mph 999.9mb 69f 74f
11:30am 6 8 mph 1000mb 69f 74f
11:24am 7 9 mph 1000.1mb 70f 74f
11:18am 7 9 mph 1000.2mb 68f 75f
11:12am 6 7 mph 1000.3mb 68f 74f
11:06am 7 8 mph 1000.2mb 68f 73f
11:00am 7 8 mph 1000.2mb 69f 74f
10:54am 6 13 mph 1000.2mb 69f 74f
10:48am 7 11 mph 1000.3mb 69f 75f
10:42am 8 13 mph 1000.4mb 69f 74f
10:36am 8 13 mph 1000.4mb 69f 75f
10:30am 9 14 mph 1000.5mb 69f 75f
10:24am 9 11 mph 1000.4mb 69f 75f
10:18am 9 13 mph 1000.4mb 69f 74f
10:12am 7 13 mph 1000.4mb 70f 75f
10:06am 7 13 mph 1000.5mb 69f 74f
10:00am 10 15 mph 1000.5mb 68f 74f
9:54am 6 13 mph 1000.4mb 68f 74f
9:48am 8 15 mph 1000.5mb 68f 74f
9:42am 6 14 mph 1000.4mb 69f 74f
9:36am 9 15 mph 1000.3mb 69f 73f
9:30am 7 11 mph 1000.3mb 69f 74f
9:24am 7 15 mph 1000.3mb 69f 73f
9:18am 8 14 mph 1000.4mb 69f 73f
9:12am 10 14 mph 1000.4mb 69f 73f
9:06am 11 14 mph 1000.4mb 69f 73f
9:00am 11 16 mph 1000.4mb 69f 73f
8:54am 10 16 mph 1000.5mb 69f 73f
8:48am 11 15 mph 1000.5mb 69f 73f
8:42am 11 15 mph 1000.5mb 68f 72f
8:36am 11 20 mph 1000.5mb 68f 72f
8:30am 9 14 mph 1000.4mb 69f 72f
8:24am 9 14 mph 1000.4mb 69f 72f
8:18am 6 13 mph 1000.4mb 69f 72f
8:12am 8 11 mph 1000.5mb 69f 72f
8:06am 6 10 mph 1000.3mb 69f 71f
8:00am 6 7 mph 1000.4mb 69f 71f
7:54am 5 7 mph 1000.4mb 69f 71f
7:48am 6 7 mph 1000.4mb 70f 71f
7:42am 5
mph
1000.4mb 70f 71f
7:36am 6
mph
1000.6mb 70f 71f
7:30am 6 9 mph 1000.7mb 71f 71f
7:24am 8 13 mph 1000.7mb 70f 71f
7:18am 7 10 mph 1000.8mb 69f 71f
7:12am 9 11 mph 1000.9mb 68f 71f
7:06am 8 13 mph 1000.8mb 68f 71f
7:00am 10 16 mph 1001.2mb 68f 71f
6:54am 10 14 mph 1001.1mb 68f 72f
6:48am 10 13 mph 1001.2mb 68f 71f
6:42am 9 11 mph 1001mb 69f 71f
6:36am 7 10 mph 1000.7mb 70f 72f
6:30am 7 9 mph 1000.6mb 71f 72f
6:24am 6 8 mph 1000.4mb 71f 72f
6:18am 7 9 mph 1000.4mb 71f 72f
6:12am 5 13 mph 1000.2mb 70f 72f
6:06am 13 16 mph 1000.3mb 70f 72f
6:00am 14 18 mph 1001.1mb 70f 72f
5:54am 15 18 mph 1001.6mb 71f 72f
5:48am 13 16 mph 1001.5mb 71f 72f
5:42am 13 16 mph 1001.6mb 71f 72f
5:36am 13 15 mph 1001.8mb 71f 72f
5:30am 13 15 mph 1002.1mb 71f 71f
5:24am 13 16 mph 1002mb 71f 71f
5:18am 8 13 mph 1001.8mb 70f 72f
5:12am 9 14 mph 1001.6mb 70f 72f
5:06am 7 10 mph 1001.4mb 71f 71f
5:00am 7 9 mph 1001.4mb 71f 71f
4:54am 7 11 mph 1001.5mb 71f 71f
4:48am 7 9 mph 1001.5mb 71f 71f
4:42am 6 8 mph 1001.6mb 71f 71f
4:36am 6 8 mph 1001.6mb 71f 71f
4:30am 7 10 mph 1001.7mb 70f 71f
4:24am 8 10 mph 1001.8mb 70f 72f
4:18am 8 13 mph 1001.6mb 70f 72f
4:12am 7 9 mph 1001.6mb 70f 72f
4:06am 8 10 mph 1001.6mb 70f 72f
4:00am 7 9 mph 1001.6mb 69f 72f
3:54am 6 7 mph 1001.6mb 69f 72f
3:48am 6 7 mph 1001.6mb 69f 72f
3:42am 6 8 mph 1001.7mb 68f 72f
3:36am 6 8 mph 1001.8mb 69f 72f
3:30am 5 6 mph 1001.9mb 69f 72f
3:24am 6 7 mph 1001.9mb 70f 72f
3:18am 6 7 mph 1001.9mb 70f 72f
3:12am 6
mph
1002.1mb 70f 72f
3:06am 5 6 mph 1002.3mb 70f 72f
3:00am 7 8 mph 1002.6mb 70f 72f
2:54am 8 9 mph 1002.7mb 70f 72f
2:48am 7 9 mph 1002.5mb 70f 72f
2:42am 6 7 mph 1002.4mb 70f 72f
2:36am 5 6 mph 1002.5mb 70f 72f
2:30am 6 8 mph 1002.7mb 70f 72f
2:24am 6 8 mph 1002.8mb 70f 72f
2:18am 6 7 mph 1003mb 71f 72f
2:12am 5 7 mph 1003.1mb 71f 72f
2:06am 3 6 mph 1003.1mb 70f 72f
2:00am 5 6 mph 1003.1mb 70f 72f
1:54am 5 7 mph 1003.3mb 70f 72f
1:48am 6 8 mph 1003.4mb 70f 72f
1:42am 6 8 mph 1003.4mb 70f 72f
1:36am 6 7 mph 1003.5mb 70f 72f
1:30am 7 9 mph 1003.6mb 70f 72f
1:24am 6 7 mph 1003.6mb 70f 72f
1:18am 5 7 mph 1003.7mb 70f 72f
1:12am 6 8 mph 1003.8mb 70f 72f
1:06am 6 9 mph 1003.8mb 70f 72f
1:00am 8 9 mph 1004mb 70f 71f
12:54am 6 10 mph 1003.9mb 70f 71f
12:48am 7 10 mph 1004.1mb 70f 71f
12:42am 8 10 mph 1004.1mb 69f 72f
12:36am 7 9 mph 1004.2mb 69f 72f
12:30am 6 9 mph 1004.2mb 69f 71f
12:24am 7 8 mph 1004.3mb 69f 71f
12:18am 7 11 mph 1004.5mb 69f 71f
12:12am 8 10 mph 1004.5mb 69f 71f
12:06am 8 10 mph 1004.4mb 70f 71f
12:00am 7 14 mph 1004.4mb 70f 71f
Sun 07/27 11:54pm 9 17 mph 1004.6mb 70f 71f
11:48pm 3 5 mph 1004.4mb 70f 72f
11:42pm 5 6 mph 1004.5mb 70f 71f
11:36pm 5 6 mph 1004.5mb 70f 71f
11:30pm 6
mph
1004.5mb 69f 72f
11:24pm 3 5 mph 1004.4mb 69f 72f
11:18pm 2 3 mph 1004.4mb 69f 72f
11:12pm 2
mph
1004.5mb 69f 72f
11:06pm 2 3 mph 1004.4mb 70f 72f
11:00pm 3 5 mph 1004.5mb 70f 73f
10:54pm 2 3 mph 1004.4mb 70f 73f
10:48pm 2 5 mph 1004.4mb 70f 73f
10:42pm 2 3 mph 1004.5mb 70f 73f
10:36pm 2
mph
1004.4mb 70f 74f
10:30pm 2 3 mph 1004.5mb 70f 74f
10:24pm 3 6 mph 1004.7mb 70f 74f
10:18pm 3
mph
1004.6mb 70f 74f
10:12pm 3 6 mph 1004.7mb 69f 74f
10:06pm 5 7 mph 1004.7mb 69f 74f
10:00pm 6 7 mph 1004.7mb 69f 75f
9:54pm 5 6 mph 1004.6mb 69f 75f
9:48pm 5 7 mph 1004.6mb 69f 75f
9:42pm 7 9 mph 1004.6mb 69f 74f
9:36pm 8
mph
1004.7mb 68f 74f
9:30pm 6
mph
1004.8mb 69f 74f
9:24pm 3
mph
1004.9mb 69f 74f
9:18pm  -  mph 1005.2mb 69f 74f
9:12pm  -  mph 1005.4mb 70f 73f
9:06pm  -  2 mph 1005.5mb 70f 74f
9:00pm 2 8 mph 1005.7mb 70f 73f
8:54pm 6 10 mph 1006.1mb 70f 74f
8:48pm 3 6 mph 1006.2mb 70f 74f
8:42pm  -  1 mph 1005.9mb 70f 74f
8:36pm  -  2 mph 1005.6mb 70f 74f
8:30pm  -  2 mph 1005.5mb 69f 75f
8:24pm 2 3 mph 1005.6mb 69f 75f
8:18pm  -  1 mph 1005.6mb 70f 75f
8:12pm 1 5 mph 1005.4mb 70f 76f
8:06pm 2 6 mph 1005.1mb 69f 76f
8:00pm 3 7 mph 1005mb 70f 76f
7:54pm 6 9 mph 1004.9mb 70f 76f
7:48pm 7 8 mph 1004.7mb 70f 76f
7:42pm 5 7 mph 1004.6mb 70f 76f
7:36pm 6 8 mph 1004.7mb 70f 76f
7:30pm 6 8 mph 1004.8mb 70f 76f
7:24pm 6 7 mph 1004.8mb 70f 76f
7:18pm 6 8 mph 1004.7mb 70f 77f
7:12pm 3 7 mph 1004.6mb 69f 77f
7:06pm 5 8 mph 1004.6mb 69f 77f
7:00pm 6 9 mph 1004.6mb 70f 76f
6:54pm 7 10 mph 1004.6mb 70f 76f
6:48pm 6 14 mph 1004.7mb 70f 77f
6:42pm 6 9 mph 1004.7mb 70f 77f
6:36pm 8 13 mph 1004.8mb 70f 77f
6:30pm 7 10 mph 1004.7mb 70f 77f
6:24pm 9 13 mph 1004.8mb 70f 77f
6:18pm 9 15 mph 1004.9mb 70f 77f
6:12pm 9 14 mph 1004.8mb 70f 77f
6:06pm 10 15 mph 1004.8mb 70f 77f
6:00pm 10 14 mph 1004.9mb 71f 77f
5:54pm 9 15 mph 1004.9mb 71f 77f
5:48pm 9 14 mph 1004.7mb 71f 77f
5:42pm 11 17 mph 1004.8mb 70f 77f
5:36pm 10 15 mph 1004.7mb 71f 77f
5:30pm 11 16 mph 1004.8mb 71f 76f
5:24pm 8 15 mph 1004.9mb 71f 77f
5:18pm 9 17 mph 1005mb 71f 76f
5:12pm 10 17 mph 1005.1mb 71f 76f
5:06pm 9 17 mph 1005.1mb 71f 77f
5:00pm 10 15 mph 1005.1mb 71f 77f
4:54pm 11 16 mph 1005.2mb 71f 77f
4:48pm 10 16 mph 1005.2mb 70f 77f
4:42pm 9 16 mph 1005.3mb 70f 77f
4:36pm 9 17 mph 1005.4mb 70f 77f
4:30pm 10 16 mph 1005.4mb 70f 77f
4:24pm 11 18 mph 1005.5mb 70f 77f
4:18pm 10 15 mph 1005.6mb 70f 77f
4:12pm 10 15 mph 1005.6mb 69f 77f
4:06pm 11 18 mph 1005.6mb 70f 77f
4:00pm 11 20 mph 1005.7mb 69f 77f
3:54pm 9 14 mph 1005.7mb 69f 77f
3:48pm 10 13 mph 1005.7mb 69f 74f
3:42pm 10 13 mph 1005.6mb 69f 74f
3:36pm 10 13 mph 1005.6mb 68f 74f
3:30pm 9 11 mph 1005.7mb 68f 74f
3:24pm 11 15 mph 1005.8mb 68f 75f
3:18pm 10 14 mph 1005.9mb 68f 75f
3:12pm 10 14 mph 1006mb 68f 75f
3:06pm 9 15 mph 1006mb 68f 75f
3:00pm 11 14 mph 1006.1mb 69f 75f
2:54pm 10 14 mph 1006.1mb 69f 75f
2:48pm 8 13 mph 1006mb 68f 74f
2:42pm 9 13 mph 1006.1mb 68f 74f
2:36pm 9 15 mph 1006.1mb 69f 74f
2:30pm 10 14 mph 1006.2mb 68f 74f
2:24pm 11 15 mph 1006.3mb 69f 74f
2:18pm 7 14 mph 1006.4mb 68f 73f
2:12pm 9 11 mph 1006.6mb 69f 73f
2:06pm 9 14 mph 1006.6mb 69f 72f
2:00pm 8 10 mph 1006.6mb 70f 72f
1:54pm 10 14 mph 1006.7mb 71f 72f
1:48pm 10 13 mph 1006.9mb 71f 71f
1:42pm 8 11 mph 1006.9mb 70f 71f
1:36pm 9 11 mph 1006.8mb 70f 71f
1:30pm 8 11 mph 1007.1mb 70f 70f
1:24pm 9 10 mph 1007.3mb 70f 70f
1:18pm 8 10 mph 1007.3mb 70f 71f
1:12pm 8 10 mph 1007.3mb 71f 71f
1:06pm 8 11 mph 1007.2mb 71f 71f
1:00pm 9 10 mph 1007.3mb 71f 71f
12:54pm 9 10 mph 1007.4mb 70f 71f
12:48pm 8 10 mph 1007.5mb 70f 71f
12:42pm 8 10 mph 1007.6mb 70f 71f
12:36pm 9 11 mph 1007.6mb 69f 71f
12:30pm 9 10 mph 1007.7mb 69f 71f
12:24pm 9 11 mph 1007.7mb 69f 70f
12:18pm 9 13 mph 1007.6mb 69f 71f
12:12pm 11 16 mph 1007.5mb 69f 71f
12:06pm 10 16 mph 1007.4mb 68f 71f
12:00pm 14 15 mph 1007.4mb 68f 70f
11:54am 10 14 mph 1007.5mb 68f 70f
11:48am 11 14 mph 1007.8mb 70f 70f
11:42am 11 15 mph 1008mb 70f 70f
11:36am 10 15 mph 1008.1mb 69f 70f
11:30am 11 14 mph 1008.4mb 69f 71f
11:24am 10 13 mph 1008.4mb 69f 71f
11:18am 10 13 mph 1008.4mb 69f 71f
11:12am 10 13 mph 1008.5mb 70f 71f
11:06am 10 11 mph 1008.5mb 70f 71f
11:00am 8 11 mph 1008.5mb 70f 71f
10:54am 9 10 mph 1008.7mb 69f 71f
10:48am 8 10 mph 1008.7mb 68f 71f
10:42am 9 11 mph 1008.8mb 68f 71f
10:36am 10 11 mph 1008.8mb 68f 71f
10:30am 10 13 mph 1008.8mb 68f 71f
10:24am 11 15 mph 1008.8mb 68f 71f
10:18am 11 15 mph 1008.9mb 68f 71f
10:12am 10 13 mph 1008.8mb 68f 71f
10:06am 9 13 mph 1008.7mb 68f 71f
10:00am 10 13 mph 1008.8mb 68f 72f
9:54am 10 11 mph 1008.8mb 69f 72f
9:48am 9 11 mph 1008.8mb 68f 72f
9:42am 9 11 mph 1008.8mb 68f 72f
9:36am 8 10 mph 1008.7mb 69f 72f
9:30am 9 11 mph 1008.7mb 68f 72f
9:24am 9 13 mph 1008.7mb 68f 72f
9:18am 9 14 mph 1008.8mb 68f 72f
9:12am 11 14 mph 1008.8mb 68f 72f
9:06am 11 14 mph 1008.8mb 69f 73f
9:00am 11 13 mph 1008.9mb 69f 73f
8:54am 10 13 mph 1009mb 69f 72f
8:48am 9 11 mph 1009.1mb 69f 72f
8:42am 10 14 mph 1009.2mb 69f 73f
8:36am 11 15 mph 1009.3mb 69f 73f
8:30am 10 13 mph 1009.3mb 69f 72f
8:24am 9 14 mph 1009.3mb 69f 72f
8:18am 9 13 mph 1009.2mb 69f 72f
8:12am 9 13 mph 1009.3mb 68f 72f
8:06am 8 11 mph 1009.4mb 68f 71f
8:00am 8 9 mph 1009.4mb 68f 71f
7:54am 7 11 mph 1009.4mb 68f 71f
7:48am 6 10 mph 1009.5mb 68f 72f
7:42am 8 10 mph 1009.6mb 69f 72f
7:36am 7 11 mph 1009.6mb 71f 71f
7:30am 8 10 mph 1009.7mb 70f 71f
7:24am 8 11 mph 1009.7mb 70f 71f
7:18am 8 9 mph 1009.8mb 70f 71f
7:12am 8 10 mph 1009.9mb 69f 71f
7:06am 7 9 mph 1009.8mb 69f 71f
7:00am 7 9 mph 1009.9mb 68f 71f
6:54am 7 9 mph 1009.9mb 68f 71f
6:48am 8 9 mph 1010mb 68f 71f
6:42am 7 10 mph 1010mb 68f 71f
6:36am 7 9 mph 1010mb 68f 71f
6:30am 8 10 mph 1010mb 68f 71f
6:24am 7 10 mph 1010mb 68f 71f
6:18am 7 9 mph 1010mb 69f 71f
6:12am 7 9 mph 1010.1mb 70f 71f
6:06am 8 10 mph 1010mb 70f 71f
6:00am 8 10 mph 1009.9mb 70f 71f
5:54am 7 10 mph 1009.9mb 70f 71f
5:48am 8 11 mph 1009.9mb 70f 71f
5:42am 8 11 mph 1009.8mb 70f 71f
5:36am 8 9 mph 1009.8mb 70f 71f
5:30am 8 9 mph 1009.9mb 70f 71f
5:24am 7 9 mph 1010mb 70f 71f
5:18am 7 9 mph 1010mb 70f 71f
5:12am 7 8 mph 1009.9mb 70f 71f
5:06am 7 9 mph 1010mb 70f 71f
5:00am 6 9 mph 1010.2mb 70f 71f
4:54am 6 8 mph 1010.1mb 70f 71f
4:48am 6 8 mph 1010.2mb 70f 71f
4:42am 7 9 mph 1010.2mb 70f 71f
4:36am 7 8 mph 1010.2mb 70f 71f
4:30am 6 8 mph 1010.3mb 70f 71f
4:24am 5 6 mph 1010.3mb 69f 71f
4:18am 5 6 mph 1010.3mb 70f 71f
4:12am 3 5 mph 1010.3mb 70f 71f
4:06am 3 6 mph 1010.5mb 70f 71f
4:00am 3 5 mph 1010.6mb 70f 71f
3:54am 2 6 mph 1010.6mb 70f 71f
3:48am 5 8 mph 1010.7mb 70f 71f
3:42am 6 7 mph 1010.6mb 70f 71f
3:36am 5 6 mph 1010.7mb 70f 71f
3:30am 3 5 mph 1010.6mb 69f 71f
3:24am 3 5 mph 1010.6mb 69f 71f
3:18am 3 5 mph 1010.7mb 69f 70f
3:12am 5 6 mph 1010.7mb 68f 70f
3:06am 5 6 mph 1010.7mb 68f 70f
3:00am 5 6 mph 1010.7mb 69f 70f
2:54am 5 6 mph 1010.6mb 69f 70f
2:48am 5 6 mph 1010.7mb 69f 70f
2:42am 3 5 mph 1010.8mb 70f 70f
2:36am 3 6 mph 1010.9mb 69f 70f
2:30am 3 5 mph 1011mb 69f 70f
2:24am 5 6 mph 1011.1mb 69f 70f
2:18am 5 6 mph 1011.2mb 69f 70f
2:12am 5 6 mph 1011.3mb 70f 70f
2:06am 5 6 mph 1011.4mb 70f 70f
2:00am 5 7 mph 1011.5mb 69f 70f
1:54am 3 5 mph 1011.5mb 69f 70f
1:48am 3 5 mph 1011.5mb 69f 70f
1:42am 5 6 mph 1011.6mb 70f 70f
1:36am 5 7 mph 1011.6mb 70f 70f
1:30am 6 7 mph 1011.6mb 70f 70f
1:24am 6 7 mph 1011.6mb 70f 70f
1:18am 6 7 mph 1011.6mb 70f 70f
1:12am 5 6 mph 1011.7mb 70f 70f
1:06am 6
mph
1011.8mb 70f 70f
1:00am 3 5 mph 1012mb 70f 70f
12:54am 5 6 mph 1012mb 70f 70f
12:48am 5 6 mph 1012.1mb 70f 70f
12:42am 5 6 mph 1012.2mb 70f 70f
12:36am 6
mph
1012.2mb 70f 70f
12:30am 6 8 mph 1012.2mb 70f 70f
12:24am 5 7 mph 1012.3mb 69f 70f
12:18am 6 8 mph 1012.3mb 69f 70f
12:12am 6 7 mph 1012.3mb 69f 70f
12:06am 6 8 mph 1012.3mb 69f 70f
12:00am 7 9 mph 1012.3mb 69f 70f
Sat 07/26 11:54pm 7 9 mph 1012.2mb 69f 70f
11:48pm 7 9 mph 1012.3mb 69f 70f
11:42pm 7 9 mph 1012.2mb 69f 70f
11:36pm 7 8 mph 1012.2mb 69f 70f
11:30pm 6 8 mph 1012.3mb 69f 70f
11:24pm 6 9 mph 1012.4mb 69f 71f
11:18pm 6 9 mph 1012.4mb 69f 71f
11:12pm 7 9 mph 1012.5mb 69f 71f
11:06pm 7 9 mph 1012.5mb 69f 70f
11:00pm 6 7 mph 1012.5mb 69f 70f
10:54pm 6 8 mph 1012.6mb 69f 71f
10:48pm 5 8 mph 1012.6mb 69f 71f
10:42pm 5 7 mph 1012.5mb 68f 71f
10:36pm 6 9 mph 1012.5mb 69f 71f
10:30pm 7 9 mph 1012.5mb 68f 71f
10:24pm 7 9 mph 1012.6mb 68f 71f
10:18pm 7 9 mph 1012.7mb 68f 72f
10:12pm 7 9 mph 1012.8mb 68f 71f
10:06pm 6 9 mph 1012.9mb 68f 72f
10:00pm 7 9 mph 1012.9mb 68f 72f
9:54pm 6 8 mph 1013mb 68f 72f
9:48pm 6 8 mph 1013mb 68f 71f
9:42pm 6 8 mph 1012.9mb 68f 72f
9:36pm 5 8 mph 1013mb 68f 72f
9:30pm 6 7 mph 1012.9mb 68f 72f
9:24pm 6 7 mph 1012.9mb 68f 72f
9:18pm 6 8 mph 1012.8mb 68f 72f
9:12pm 7 9 mph 1012.8mb 68f 72f
9:06pm 6 8 mph 1012.7mb 68f 72f
9:00pm 5 8 mph 1012.7mb 68f 72f
8:54pm 6 7 mph 1012.7mb 68f 72f
8:48pm 6 8 mph 1012.7mb 67f 72f
8:42pm 5 8 mph 1012.6mb 67f 72f
8:36pm 6 8 mph 1012.6mb 67f 72f
8:30pm 6 8 mph 1012.5mb 67f 72f
8:24pm 6 8 mph 1012.5mb 68f 72f
8:18pm 6 7 mph 1012.5mb 68f 72f
8:12pm 6 8 mph 1012.5mb 67f 72f
8:06pm 7 8 mph 1012.6mb 68f 73f
8:00pm 6 9 mph 1012.5mb 68f 73f
7:54pm 7 9 mph 1012.6mb 68f 73f
7:48pm 7 9 mph 1012.5mb 68f 73f
7:42pm 6 9 mph 1012.5mb 70f 73f
7:36pm 7 11 mph 1012.5mb 70f 73f
7:30pm 8 10 mph 1012.6mb 70f 73f
7:24pm 7 10 mph 1012.6mb 70f 74f
7:18pm 6 13 mph 1012.6mb 69f 74f
7:12pm 9 13 mph 1012.6mb 69f 74f
7:06pm 8 13 mph 1012.5mb 69f 74f
7:00pm 10 13 mph 1012.5mb 68f 74f
6:54pm 9 13 mph 1012.5mb 69f 74f
6:48pm 9 13 mph 1012.5mb 69f 74f
6:42pm 9 15 mph 1012.5mb 69f 74f
6:36pm 10 15 mph 1012.5mb 69f 74f
6:30pm 10 15 mph 1012.5mb 69f 74f
6:24pm 9 15 mph 1012.6mb 69f 74f
6:18pm 10 15 mph 1012.6mb 69f 75f
6:12pm 10 15 mph 1012.7mb 69f 75f
6:06pm 9 14 mph 1012.7mb 69f 75f
6:00pm 8 14 mph 1012.7mb 70f 75f
5:54pm 8 13 mph 1012.7mb 69f 75f
5:48pm 9 11 mph 1012.8mb 69f 74f
5:42pm 8 14 mph 1012.9mb 69f 74f
5:36pm 6 15 mph 1012.9mb 69f 74f
5:30pm 8 13 mph 1013.1mb 69f 74f
5:24pm 6 9 mph 1013.1mb 69f 74f
5:18pm 8 14 mph 1013.2mb 69f 74f
5:12pm 9 13 mph 1013.2mb 69f 74f
5:06pm 8 14 mph 1013.2mb 69f 74f
5:00pm 8 10 mph 1013.2mb 69f 74f
4:54pm 8 10 mph 1013.2mb 69f 74f
4:48pm 9 13 mph 1013.3mb 69f 74f
4:42pm 9 13 mph 1013.3mb 69f 74f
4:36pm 10 13 mph 1013.3mb 69f 74f
4:30pm 6 10 mph 1013.2mb 69f 75f
4:24pm 6 9 mph 1013.1mb 69f 76f
4:18pm 8 10 mph 1013.1mb 69f 75f
4:12pm 7 11 mph 1013.1mb 69f 76f
4:06pm 6 9 mph 1013.1mb 69f 76f
4:00pm 8 10 mph 1013.1mb 69f 76f
3:54pm 6 8 mph 1013.1mb 69f 76f
3:48pm 5 8 mph 1013.1mb 69f 76f
3:42pm 5 8 mph 1013.1mb 69f 76f
3:36pm 6 9 mph 1013.1mb 69f 76f
3:30pm 7 9 mph 1013.2mb 69f 76f
3:24pm 5 9 mph 1013.2mb 69f 76f
3:18pm 5 9 mph 1013.2mb 69f 76f
3:12pm 5 7 mph 1013.2mb 68f 76f
3:06pm 5 10 mph 1013.2mb 69f 76f
3:00pm 7 10 mph 1013.3mb 69f 76f
2:54pm 8 11 mph 1013.3mb 69f 76f
2:48pm 6 10 mph 1013.4mb 69f 76f
2:42pm 7 9 mph 1013.4mb 69f 76f
2:36pm 6 10 mph 1013.4mb 68f 76f
2:30pm 6 7 mph 1013.4mb 69f 76f
2:24pm 7 10 mph 1013.3mb 69f 76f
2:18pm 8 10 mph 1013.4mb 69f 76f
2:12pm 6 9 mph 1013.4mb 69f 76f
2:06pm 8 11 mph 1013.5mb 69f 76f
2:00pm 5 8 mph 1013.6mb 69f 77f
1:54pm 6 9 mph 1013.7mb 69f 77f
1:48pm 7 10 mph 1013.8mb 68f 77f
1:42pm 7 10 mph 1013.8mb 68f 77f
1:36pm 6 10 mph 1013.8mb 68f 78f
1:30pm 8 10 mph 1013.8mb 68f 77f
1:24pm 8 11 mph 1013.9mb 68f 78f
1:18pm 7 11 mph 1013.9mb 68f 78f
1:12pm 7 10 mph 1013.9mb 68f 78f
1:06pm 8 14 mph 1013.9mb 69f 78f
1:00pm 9 13 mph 1013.9mb 69f 78f
12:54pm 10 15 mph 1014mb 69f 78f
12:48pm 8 13 mph 1014mb 69f 78f
12:42pm 9 15 mph 1014mb 69f 78f
12:36pm 10 15 mph 1014.1mb 68f 78f
12:30pm 11 16 mph 1014mb 68f 79f
12:24pm 9 18 mph 1014mb 68f 79f
12:18pm 10 17 mph 1014.2mb 68f 79f
12:12pm 13 16 mph 1014.2mb 68f 79f
12:06pm 11 16 mph 1014.2mb 68f 78f
12:00pm 8 15 mph 1014.2mb 68f 79f
11:54am 8 11 mph 1014.3mb 67f 78f
11:48am 7 15 mph 1014.4mb 67f 78f
11:42am 6 13 mph 1014.4mb 67f 79f
11:36am 8 13 mph 1014.4mb 67f 78f
11:30am 9 13 mph 1014.5mb 67f 77f
11:24am 7 14 mph 1014.5mb 68f 79f
11:18am 7 11 mph 1014.6mb 68f 78f
11:12am 7 11 mph 1014.6mb 68f 77f
11:06am 8 14 mph 1014.7mb 68f 76f
11:00am 7 13 mph 1014.7mb 67f 77f
10:54am 7 13 mph 1014.7mb 67f 77f
10:48am 6 9 mph 1014.7mb 67f 76f
10:42am 7 11 mph 1014.6mb 68f 76f
10:36am 5 9 mph 1014.7mb 68f 76f
10:30am 8 10 mph 1014.7mb 68f 75f
10:24am 6 9 mph 1014.7mb 68f 75f
10:18am 7 10 mph 1014.8mb 68f 74f
10:12am 6 8 mph 1014.7mb 68f 74f
10:06am 6 10 mph 1014.7mb 68f 74f
10:00am 8 10 mph 1014.8mb 68f 74f
9:54am 6 9 mph 1014.8mb 68f 75f
9:48am 6 8 mph 1014.7mb 68f 75f
9:42am 6 8 mph 1014.7mb 68f 75f
9:36am 6 8 mph 1014.8mb 68f 74f
9:30am 6 9 mph 1014.8mb 69f 74f
9:24am 7 9 mph 1014.9mb 69f 74f
9:18am 6 9 mph 1014.9mb 68f 74f
9:12am 7 11 mph 1015mb 69f 74f
9:06am 8 11 mph 1015mb 69f 73f
9:00am 6 13 mph 1015.1mb 69f 73f
8:54am 9 15 mph 1015.2mb 69f 72f
8:48am 8 14 mph 1015.2mb 69f 72f
8:42am 8 11 mph 1015.2mb 69f 72f
8:36am 6 11 mph 1015.2mb 69f 72f
8:30am 7 11 mph 1015.3mb 69f 71f
8:24am 6 9 mph 1015.2mb 69f 71f
8:18am 5 6 mph 1015.2mb 69f 71f
8:12am 6 8 mph 1015.3mb 69f 71f
8:06am 6 9 mph 1015.2mb 69f 70f
8:00am 7 10 mph 1015.2mb 69f 70f
7:54am 5 6 mph 1015.3mb 69f 71f
7:48am 6 8 mph 1015.2mb 69f 70f
7:42am 3 7 mph 1015.2mb 69f 70f
7:36am 3 5 mph 1015.2mb 69f 70f
7:30am 1 3 mph 1015.2mb 69f 70f
7:24am  -  mph 1015.1mb 68f 70f
7:18am  -  mph 1015.1mb 68f 69f
7:12am  -  mph 1015.1mb 67f 69f
7:06am  -  mph 1015.1mb 68f 69f
7:00am  -  mph 1015mb 68f 68f
6:54am  -  mph 1014.9mb 69f 69f
6:48am  -  mph 1015mb 69f 69f
6:42am  -  2 mph 1015mb 68f 68f
6:36am 2 3 mph 1015mb 68f 67f
6:30am  -  mph 1015mb 67f 67f
6:24am  -  mph 1015mb 67f 67f
6:18am  -  mph 1015mb 67f 67f
6:12am  -  mph 1015mb 67f 67f
6:06am  -  mph 1014.9mb 67f 67f
6:00am  -  mph 1014.9mb 68f 67f
5:54am  -  mph 1014.9mb 68f 67f
5:48am  -  mph 1014.9mb 69f 67f
5:42am  -  mph 1014.9mb 69f 67f
5:36am  -  mph 1014.9mb 69f 67f
5:30am  -  mph 1014.9mb 69f 67f
5:24am  -  mph 1014.9mb 69f 67f
5:18am  -  mph 1014.8mb 70f 67f
5:12am  -  mph 1014.7mb 70f 67f
5:06am  -  mph 1014.7mb 69f 67f
5:00am  -  mph 1014.6mb 69f 67f
4:54am  -  mph 1014.7mb 69f 67f
4:48am  -  mph 1014.7mb 70f 67f
4:42am  -  mph 1014.8mb 70f 67f
4:36am  -  mph 1014.8mb 70f 67f
4:30am  -  mph 1014.7mb 70f 67f
4:24am  -  mph 1014.7mb 70f 67f
4:18am  -  mph 1014.6mb 70f 67f
4:12am  -  mph 1014.6mb 69f 67f
4:06am  -  mph 1014.6mb 69f 67f
4:00am  -  mph 1014.6mb 69f 67f
3:54am  -  mph 1014.6mb 69f 67f
3:48am  -  mph 1014.6mb 69f 67f
3:42am  -  mph 1014.7mb 69f 67f
3:36am  -  1 mph 1014.7mb 69f 67f
3:30am  -  1 mph 1014.7mb 69f 67f
3:24am  -  2 mph 1014.7mb 70f 67f
3:18am 1 2 mph 1014.7mb 70f 67f
3:12am 2 3 mph 1014.7mb 70f 67f
3:06am 2 3 mph 1014.7mb 70f 67f
3:00am  -  mph 1014.7mb 69f 67f
2:54am  -  mph 1014.7mb 69f 67f
2:48am  -  mph 1014.7mb 69f 67f
2:42am  -  mph 1014.7mb 68f 67f
2:36am  -  mph 1014.7mb 69f 67f
2:30am  -  2 mph 1014.7mb 69f 67f
2:24am 1 3 mph 1014.7mb 69f 67f
2:18am  -  mph 1014.7mb 69f 67f
2:12am  -  3 mph 1014.7mb 69f 67f
2:06am  -  mph 1014.8mb 70f 67f
2:00am  -  3 mph 1014.8mb 69f 67f
1:54am  -  3 mph 1014.8mb 69f 67f
1:48am  -  mph 1014.9mb 69f 68f
1:42am  -  mph 1015mb 69f 68f
1:36am  -  mph 1015mb 69f 68f
1:30am 2 5 mph 1015mb 70f 68f
1:24am 2 5 mph 1015mb 70f 68f
1:18am 2 5 mph 1015mb 70f 68f
1:12am 2 5 mph 1015mb 70f 68f
1:06am 1 3 mph 1015mb 70f 68f
1:00am 2 3 mph 1015.1mb 70f 68f
12:54am 2 5 mph 1015.2mb 70f 68f
12:48am 3 5 mph 1015.2mb 70f 68f
12:42am 2 5 mph 1015.3mb 69f 69f
12:36am 3 6 mph 1015.4mb 69f 69f
12:30am 3 6 mph 1015.4mb 69f 69f
12:24am 2 5 mph 1015.4mb 69f 69f
12:18am 2 5 mph 1015.4mb 69f 69f
12:12am 2 5 mph 1015.4mb 69f 69f
12:06am 3 6 mph 1015.4mb 69f 69f
12:00am 3 6 mph 1015.4mb 69f 69f
Fri 07/25 11:54pm 3 6 mph 1015.5mb 68f 69f
11:48pm 3 7 mph 1015.5mb - 69f
11:42pm 3 6 mph 1015.4mb - 69f
11:36pm 3 6 mph 1015.4mb - 69f
11:30pm 3 6 mph 1015.5mb 68f 69f
11:24pm 2 6 mph 1015.5mb 68f 70f
11:18pm 3 6 mph 1015.5mb 68f 70f
11:12pm 5 6 mph 1015.5mb 68f 70f
11:06pm 6 8 mph 1015.4mb 68f 70f
11:00pm 5 7 mph 1015.4mb 68f 70f
10:54pm 5 7 mph 1015.5mb 68f 70f
10:48pm 3 7 mph 1015.5mb 69f -
10:42pm 3 8 mph - - -
10:36pm  -  mph 1015.5mb 68f 70f
10:30pm  -  mph 1015.5mb 68f 70f
10:24pm  -  mph 1015.5mb 68f 70f
10:18pm 6 9 mph - 68f 70f
10:12pm  -  mph - 68f 71f
10:06pm 5 6 mph 1015.5mb - 71f
10:00pm 5 7 mph 1015.5mb 68f 71f
9:54pm 5 8 mph 1015.3mb 68f 71f
9:48pm  -  mph 1015.3mb 68f 71f
9:42pm  -  mph 1015.3mb 68f 71f
9:36pm  -  mph 1015.3mb 68f 71f
9:30pm 5 6 mph 1015.2mb 68f 72f
9:24pm 2 6 mph 1015.1mb 67f 72f
9:18pm 3 5 mph 1015mb 67f 72f
9:12pm 5 7 mph 1015mb 67f 72f
9:06pm 5 6 mph 1014.9mb 67f 72f
9:00pm 6 7 mph 1014.9mb 67f 72f
8:54pm 6 7 mph 1014.8mb 67f 72f
8:48pm 6 7 mph 1014.8mb 67f 72f
8:42pm 6 9 mph 1014.6mb 67f 73f
8:36pm 5 10 mph 1014.5mb 67f 73f
8:30pm 6 7 mph 1014.5mb 68f 73f
8:24pm 3 6 mph 1014.4mb 68f 74f
8:18pm 3 6 mph 1014.4mb 68f 74f
8:12pm 3 7 mph 1014.3mb 69f 74f
8:06pm 6 7 mph 1014.3mb 69f 75f
8:00pm 5 7 mph 1014.3mb 69f 75f
7:54pm 6 7 mph 1014.2mb 69f 75f
7:48pm 6 9 mph 1014.1mb 69f 75f
7:42pm 6 10 mph 1014.1mb 69f 75f
7:36pm 5 8 mph 1014mb 69f 76f
7:30pm 5 10 mph 1014mb 69f 76f
7:24pm 7 10 mph 1014mb 69f 76f
7:18pm 7 10 mph 1013.9mb 69f 76f
7:12pm 8 10 mph 1013.9mb 70f 76f
7:06pm 7 13 mph 1013.9mb 69f 76f
7:00pm 8 13 mph 1013.9mb 69f 76f
6:54pm 7 11 mph 1013.8mb 68f 77f
6:48pm 8 14 mph 1013.8mb 69f 77f
6:42pm 7 13 mph 1013.8mb 70f 77f
6:36pm 9 14 mph 1013.8mb 70f 77f
6:30pm 6 10 mph 1013.7mb 69f 78f
6:24pm 7 10 mph 1013.7mb 69f 77f
6:18pm 8 10 mph 1013.7mb 69f 77f
6:12pm 7 10 mph 1013.7mb 68f 77f
6:06pm 7 10 mph 1013.6mb 67f 78f
6:00pm 7 11 mph 1013.7mb 67f 78f
5:54pm 6 9 mph 1013.6mb 67f 78f
5:48pm 6 10 mph 1013.6mb 68f 77f
5:42pm 6 11 mph 1013.5mb 67f 78f
5:36pm 7 11 mph 1013.6mb 67f 78f
5:30pm 6 8 mph 1013.6mb 68f 79f
5:24pm 6 8 mph 1013.6mb 68f 79f
5:18pm 6 7 mph 1013.6mb 68f 78f
5:12pm 2 3 mph 1013.6mb 68f 80f
5:06pm 2 6 mph 1013.6mb 68f 81f
5:00pm 3 8 mph 1013.6mb 68f 81f
4:54pm 6 8 mph 1013.5mb 70f 81f
4:48pm 5 7 mph 1013.5mb 68f 81f
4:42pm 5 8 mph 1013.6mb 69f 80f
4:36pm 3 6 mph 1013.7mb 70f 78f
4:30pm 2 7 mph 1013.8mb 70f 77f
4:24pm 3 6 mph 1013.8mb 70f 80f
4:18pm 3 6 mph 1013.8mb 70f 80f
4:12pm 2 6 mph 1013.8mb 70f 81f
4:06pm 3 5 mph 1013.8mb 70f 79f
4:00pm 3 7 mph 1013.7mb 70f 81f
3:54pm 2 7 mph 1013.8mb 70f 80f
3:48pm 6 9 mph 1013.9mb 69f 81f
3:42pm 3 8 mph 1013.9mb 69f 79f
3:36pm 2 6 mph 1014mb 69f 81f
3:30pm 2 6 mph 1014mb 69f 78f
3:24pm 6 8 mph 1013.9mb 69f 78f
3:18pm 3 9 mph 1013.9mb 69f 79f
3:12pm 5 9 mph 1013.8mb 70f 80f
3:06pm 3 8 mph 1013.8mb 70f 80f
3:00pm 6 9 mph 1013.8mb 69f 78f
2:54pm 2 6 mph 1013.7mb 69f 78f
2:48pm 3 8 mph 1013.7mb 69f 78f
2:42pm 3 6 mph 1013.8mb 69f 78f
2:36pm 2 7 mph 1013.8mb 69f 79f
2:30pm 2 7 mph 1013.9mb 69f 78f
2:24pm 3 6 mph 1013.9mb 69f 78f
2:18pm 2 6 mph 1013.9mb 69f 78f
2:12pm 3 7 mph 1013.9mb 69f 76f
2:06pm 3 9 mph 1013.8mb 69f 78f
2:00pm 6 9 mph 1013.9mb 69f 77f
1:54pm 2 6 mph 1013.9mb 70f 77f
1:48pm 3 7 mph 1014mb 69f 76f
1:42pm 6 9 mph 1013.9mb 69f 76f
1:36pm 3 5 mph 1013.9mb 69f 75f
1:30pm 5 6 mph 1014mb 70f 75f
1:24pm 3 8 mph 1014.2mb 70f 76f
1:18pm 6 8 mph 1014.2mb 70f 78f
1:12pm 6 8 mph 1014.3mb 69f 76f
1:06pm 5 9 mph 1014.3mb 70f 77f
1:00pm 3 9 mph 1014.2mb 69f 76f
12:54pm 5 8 mph 1014.3mb 69f 76f
12:48pm 3 8 mph 1014.3mb 69f 75f
12:42pm 2 8 mph 1014.3mb 70f 76f
12:36pm 7 11 mph 1014.3mb 69f 76f
12:30pm 6 9 mph 1014.5mb 69f 76f
12:24pm 5 8 mph 1014.4mb 69f 75f
12:18pm 6 9 mph 1014.4mb 69f 75f
12:12pm 5 10 mph 1014.5mb 69f 75f
12:06pm 2 8 mph 1014.4mb 69f 74f
12:00pm 5 9 mph 1014.4mb 68f 74f
11:54am 8 10 mph 1014.5mb 69f 73f
11:48am 8 10 mph 1014.5mb 69f 73f
11:42am 7 13 mph 1014.7mb 69f 73f
11:36am 6 11 mph 1014.6mb 69f 73f
11:30am 6 11 mph 1014.6mb 69f 74f
11:24am 5 9 mph 1014.6mb 68f 73f
11:18am 7 13 mph 1014.6mb 69f 73f
11:12am 7 9 mph 1014.6mb 68f 73f
11:06am 7 11 mph 1014.7mb 67f 72f
11:00am 8 13 mph 1014.7mb 68f 72f
10:54am 5 10 mph 1014.8mb 68f 72f
10:48am 6 9 mph 1014.9mb 67f 72f
10:42am 6 11 mph 1015mb 67f 71f
10:36am 8 11 mph 1015mb 68f 71f
10:30am 7 11 mph 1015mb 68f 71f
10:24am 5 11 mph 1015mb 68f 72f
10:18am 7 10 mph 1015.1mb 68f 71f
10:12am 8 10 mph 1015mb 68f 71f
10:06am 7 10 mph 1015mb 68f 71f
10:00am 7 13 mph 1015mb 68f 71f
9:54am 6 10 mph 1014.9mb 68f 71f
9:48am 7 11 mph 1014.9mb 68f 70f
9:42am 7 11 mph 1014.8mb 68f 70f
9:36am 8 13 mph 1014.8mb 68f 70f
9:30am 7 11 mph 1014.8mb 68f 70f
9:24am 8 11 mph 1014.8mb 68f 69f
9:18am 9 13 mph 1014.7mb 68f 69f
9:12am 8 13 mph 1014.8mb 68f 69f
9:06am 9 11 mph 1014.7mb 68f 68f
9:00am 6 11 mph 1014.6mb 68f 69f
8:54am 6 11 mph 1014.5mb 68f 68f
8:48am 6 14 mph 1014.5mb 68f 68f
8:42am 10 14 mph 1014.4mb 68f 68f
8:36am 9 14 mph 1014.4mb 68f 67f
8:30am 8 13 mph 1014.3mb 68f 67f
8:24am 7 14 mph 1014.3mb 68f 67f
8:18am 10 14 mph 1014.2mb 68f 67f
8:12am 9 15 mph 1014.1mb 68f 67f
8:06am 9 16 mph 1014.1mb 68f 66f
8:00am 9 15 mph 1014mb 68f 66f
7:54am 10 15 mph 1014mb 68f 66f
7:48am 9 14 mph 1013.9mb 68f 66f
7:42am 9 13 mph 1013.9mb 68f 66f
7:36am 6 9 mph 1013.8mb 68f 66f
7:30am 6 9 mph 1013.8mb 68f 66f
7:24am 6 10 mph 1013.8mb 68f 66f
7:18am 7 9 mph 1013.7mb 67f 65f
7:12am 6 10 mph 1013.8mb 67f 65f
7:06am 5 8 mph 1013.8mb 67f 65f
7:00am 6 9 mph 1013.9mb 68f 65f
6:54am 6 10 mph 1013.8mb 68f 65f
6:48am 5 8 mph 1013.7mb 67f 65f
6:42am 5 8 mph 1013.7mb 68f 65f
6:36am 6 10 mph 1013.6mb 67f 65f
6:30am 6 8 mph 1013.5mb 68f 65f
6:24am 5 9 mph 1013.6mb 69f 65f
6:18am 5 8 mph 1013.4mb 68f 64f
6:12am 6 8 mph 1013.5mb 67f 64f
6:06am 5 6 mph 1013.4mb 67f 64f
6:00am 3 7 mph 1013.3mb 67f 64f
5:54am 6 7 mph 1013.3mb 67f 64f
5:48am 6 8 mph 1013.3mb 67f 64f
5:42am 6 8 mph 1013.3mb 67f 64f
5:36am 5 7 mph 1013.3mb 67f 64f
5:30am 6 7 mph 1013.2mb 67f 64f
5:24am 5 8 mph 1013.2mb 68f 64f
5:18am 5 8 mph 1013.2mb 68f 64f
5:12am 5 7 mph 1013.1mb 68f 64f
5:06am 3 6 mph 1013.1mb 69f 64f
5:00am 2 7 mph 1013mb 69f 65f
4:54am 5 7 mph 1013mb 69f 65f
4:48am 6 7 mph 1013mb 71f 64f
4:42am 3 7 mph 1013mb 71f 65f
4:36am 5 8 mph 1013mb 71f 65f
4:30am 6 8 mph 1012.9mb 71f 65f
4:24am 6 9 mph 1012.7mb 71f 65f
4:18am 5 7 mph 1012.6mb 71f 65f
4:12am 3 8 mph 1012.6mb 71f 65f
4:06am 5 8 mph 1012.6mb 71f 65f
4:00am 5 8 mph 1012.5mb 70f 65f
3:54am 3 7 mph 1012.5mb 70f 65f
3:48am 6 8 mph 1012.4mb 70f 65f
3:42am 2 7 mph 1012.3mb 70f 65f
3:36am 6 7 mph 1012.3mb 70f 65f
3:30am 5 7 mph 1012.3mb 70f 65f
3:24am 6 8 mph 1012.3mb 70f 66f
3:18am 5 8 mph 1012.3mb 70f 66f
3:12am 3 6 mph 1012.2mb 70f 66f
3:06am 2 5 mph 1012.1mb 70f 66f
3:00am 3 5 mph 1011.9mb 70f 66f
2:54am 3 5 mph 1011.9mb 70f 66f
2:48am 3 6 mph 1011.9mb 69f 66f
2:42am 3 5 mph 1012mb 70f 67f
2:36am 3 5 mph 1012mb 70f 67f
2:30am 3 6 mph 1011.8mb 70f 67f
2:24am 3 6 mph 1011.9mb 70f 67f
2:18am 5 6 mph 1011.9mb 70f 67f
2:12am 3 5 mph 1011.8mb 70f 67f
2:06am 3 5 mph 1011.7mb 70f 67f
2:00am 3 5 mph 1011.8mb 70f 67f
1:54am 2 5 mph 1011.8mb 70f 67f
1:48am 3 5 mph 1011.8mb 70f 67f
1:42am 5 6 mph 1011.8mb 70f 67f
1:36am 5 6 mph 1011.8mb 70f 67f
1:30am 5 6 mph 1011.9mb 70f 67f
1:24am 2 3 mph 1011.9mb 70f 67f
1:18am 2 3 mph 1011.8mb 70f 67f
1:12am 2 5 mph 1011.7mb 70f 67f
1:06am 2 3 mph 1011.6mb 70f 67f